sensor_id;sensor_type;location;lat;lon;timestamp;noise_LAeq;noise_LA_min;noise_LA_max;noise_LA01;noise_LA95
72686;Laerm;61365;52.162;4.500;2024-01-30T00:02:12;45.57;39.74;57.78;;
72686;Laerm;61365;52.162;4.500;2024-01-30T00:04:38;45.40;39.80;51.83;;
72686;Laerm;61365;52.162;4.500;2024-01-30T00:07:04;45.60;40.62;55.89;;
72686;Laerm;61365;52.162;4.500;2024-01-30T00:09:31;45.61;38.65;57.56;;
72686;Laerm;61365;52.162;4.500;2024-01-30T00:11:57;45.50;39.39;56.07;;
72686;Laerm;61365;52.162;4.500;2024-01-30T00:14:23;45.65;37.61;58.51;;
72686;Laerm;61365;52.162;4.500;2024-01-30T00:16:50;45.52;37.32;57.07;;
72686;Laerm;61365;52.162;4.500;2024-01-30T00:19:17;45.46;39.77;51.59;;
72686;Laerm;61365;52.162;4.500;2024-01-30T00:21:43;45.49;36.86;56.00;;
72686;Laerm;61365;52.162;4.500;2024-01-30T00:24:09;45.43;39.73;57.97;;
72686;Laerm;61365;52.162;4.500;2024-01-30T00:26:35;45.45;39.16;58.32;;
72686;Laerm;61365;52.162;4.500;2024-01-30T00:29:02;45.48;39.16;58.29;;
72686;Laerm;61365;52.162;4.500;2024-01-30T00:31:28;45.45;40.25;56.41;;
72686;Laerm;61365;52.162;4.500;2024-01-30T00:33:55;45.50;40.41;57.71;;
72686;Laerm;61365;52.162;4.500;2024-01-30T00:36:22;45.44;37.34;55.91;;
72686;Laerm;61365;52.162;4.500;2024-01-30T00:38:49;45.47;39.08;55.50;;
72686;Laerm;61365;52.162;4.500;2024-01-30T00:41:17;45.43;40.50;51.24;;
72686;Laerm;61365;52.162;4.500;2024-01-30T00:43:43;45.43;39.42;58.34;;
72686;Laerm;61365;52.162;4.500;2024-01-30T00:46:09;45.30;39.04;56.33;;
72686;Laerm;61365;52.162;4.500;2024-01-30T00:48:35;45.29;38.84;55.97;;
72686;Laerm;61365;52.162;4.500;2024-01-30T00:51:01;45.32;38.91;57.53;;
72686;Laerm;61365;52.162;4.500;2024-01-30T00:53:28;45.27;39.05;57.99;;
72686;Laerm;61365;52.162;4.500;2024-01-30T00:55:54;45.36;39.25;56.78;;
72686;Laerm;61365;52.162;4.500;2024-01-30T00:58:20;45.27;37.18;57.04;;
72686;Laerm;61365;52.162;4.500;2024-01-30T01:00:46;45.22;38.58;56.73;;
72686;Laerm;61365;52.162;4.500;2024-01-30T01:03:12;45.23;40.57;55.55;;
72686;Laerm;61365;52.162;4.500;2024-01-30T01:05:39;45.17;40.37;58.18;;
72686;Laerm;61365;52.162;4.500;2024-01-30T01:08:06;45.14;39.32;58.30;;
72686;Laerm;61365;52.162;4.500;2024-01-30T01:10:32;45.08;39.79;55.78;;
72686;Laerm;61365;52.162;4.500;2024-01-30T01:12:58;45.15;37.86;57.73;;
72686;Laerm;61365;52.162;4.500;2024-01-30T01:15:24;45.06;38.02;57.17;;
72686;Laerm;61365;52.162;4.500;2024-01-30T01:17:50;45.14;40.18;57.05;;
72686;Laerm;61365;52.162;4.500;2024-01-30T01:20:16;45.15;38.97;55.46;;
72686;Laerm;61365;52.162;4.500;2024-01-30T01:22:42;45.18;38.21;56.81;;
72686;Laerm;61365;52.162;4.500;2024-01-30T01:25:09;45.15;38.24;57.57;;
72686;Laerm;61365;52.162;4.500;2024-01-30T01:27:36;44.95;39.66;56.26;;
72686;Laerm;61365;52.162;4.500;2024-01-30T01:30:09;45.01;37.22;57.18;;
72686;Laerm;61365;52.162;4.500;2024-01-30T01:32:36;44.99;38.92;55.57;;
72686;Laerm;61365;52.162;4.500;2024-01-30T01:35:02;45.13;39.18;55.72;;
72686;Laerm;61365;52.162;4.500;2024-01-30T01:37:31;45.12;39.01;58.23;;
72686;Laerm;61365;52.162;4.500;2024-01-30T01:39:57;45.16;39.46;57.34;;
72686;Laerm;61365;52.162;4.500;2024-01-30T01:42:23;45.15;40.01;56.10;;
72686;Laerm;61365;52.162;4.500;2024-01-30T01:44:49;45.18;39.84;56.78;;
72686;Laerm;61365;52.162;4.500;2024-01-30T01:47:15;45.12;39.16;52.36;;
72686;Laerm;61365;52.162;4.500;2024-01-30T01:49:42;45.29;39.37;57.11;;
72686;Laerm;61365;52.162;4.500;2024-01-30T01:52:08;45.17;39.53;56.58;;
72686;Laerm;61365;52.162;4.500;2024-01-30T01:54:35;45.25;39.14;57.49;;
72686;Laerm;61365;52.162;4.500;2024-01-30T01:57:03;45.17;36.69;57.74;;
72686;Laerm;61365;52.162;4.500;2024-01-30T01:59:29;45.18;38.38;58.16;;
72686;Laerm;61365;52.162;4.500;2024-01-30T02:01:56;45.28;39.48;57.30;;
72686;Laerm;61365;52.162;4.500;2024-01-30T02:04:22;45.17;37.49;57.20;;
72686;Laerm;61365;52.162;4.500;2024-01-30T02:06:49;45.12;40.28;54.49;;
72686;Laerm;61365;52.162;4.500;2024-01-30T02:09:15;45.27;39.33;57.90;;
72686;Laerm;61365;52.162;4.500;2024-01-30T02:11:42;45.24;40.35;56.77;;
72686;Laerm;61365;52.162;4.500;2024-01-30T02:14:08;45.24;39.57;56.68;;
72686;Laerm;61365;52.162;4.500;2024-01-30T02:16:34;45.22;39.34;57.99;;
72686;Laerm;61365;52.162;4.500;2024-01-30T02:19:00;45.21;40.44;56.15;;
72686;Laerm;61365;52.162;4.500;2024-01-30T02:21:26;45.19;39.91;57.76;;
72686;Laerm;61365;52.162;4.500;2024-01-30T02:23:54;45.25;39.18;56.22;;
72686;Laerm;61365;52.162;4.500;2024-01-30T02:26:21;45.17;39.83;54.93;;
72686;Laerm;61365;52.162;4.500;2024-01-30T02:28:47;45.20;38.29;57.38;;
72686;Laerm;61365;52.162;4.500;2024-01-30T02:31:13;45.25;39.39;57.61;;
72686;Laerm;61365;52.162;4.500;2024-01-30T02:33:39;45.30;38.56;57.31;;
72686;Laerm;61365;52.162;4.500;2024-01-30T02:36:05;45.22;40.16;52.74;;
72686;Laerm;61365;52.162;4.500;2024-01-30T02:38:31;45.23;36.87;57.00;;
72686;Laerm;61365;52.162;4.500;2024-01-30T02:40:57;45.19;39.47;57.66;;
72686;Laerm;61365;52.162;4.500;2024-01-30T02:43:23;45.32;36.62;58.21;;
72686;Laerm;61365;52.162;4.500;2024-01-30T02:45:49;45.21;38.27;56.00;;
72686;Laerm;61365;52.162;4.500;2024-01-30T02:48:15;45.25;38.53;57.44;;
72686;Laerm;61365;52.162;4.500;2024-01-30T02:50:42;45.20;40.26;55.65;;
72686;Laerm;61365;52.162;4.500;2024-01-30T02:53:08;45.21;39.38;57.59;;
72686;Laerm;61365;52.162;4.500;2024-01-30T02:55:34;45.19;39.71;57.15;;
72686;Laerm;61365;52.162;4.500;2024-01-30T02:58:00;45.27;39.63;58.34;;
72686;Laerm;61365;52.162;4.500;2024-01-30T03:00:27;45.14;39.46;57.24;;
72686;Laerm;61365;52.162;4.500;2024-01-30T03:02:53;45.18;39.19;55.94;;
72686;Laerm;61365;52.162;4.500;2024-01-30T03:05:19;45.28;38.88;56.92;;
72686;Laerm;61365;52.162;4.500;2024-01-30T03:07:45;45.22;39.26;57.48;;
72686;Laerm;61365;52.162;4.500;2024-01-30T03:10:11;45.27;39.83;55.73;;
72686;Laerm;61365;52.162;4.500;2024-01-30T03:12:37;45.27;39.44;55.38;;
72686;Laerm;61365;52.162;4.500;2024-01-30T03:15:03;45.17;37.96;56.17;;
72686;Laerm;61365;52.162;4.500;2024-01-30T03:17:29;45.27;37.03;56.90;;
72686;Laerm;61365;52.162;4.500;2024-01-30T03:19:56;45.26;40.12;51.38;;
72686;Laerm;61365;52.162;4.500;2024-01-30T03:22:22;45.29;37.93;56.28;;
72686;Laerm;61365;52.162;4.500;2024-01-30T03:24:48;45.30;36.72;56.94;;
72686;Laerm;61365;52.162;4.500;2024-01-30T03:27:14;45.29;39.67;56.49;;
72686;Laerm;61365;52.162;4.500;2024-01-30T03:29:40;45.30;40.82;54.39;;
72686;Laerm;61365;52.162;4.500;2024-01-30T03:32:06;45.30;39.65;58.34;;
72686;Laerm;61365;52.162;4.500;2024-01-30T03:34:32;45.31;39.94;55.87;;
72686;Laerm;61365;52.162;4.500;2024-01-30T03:36:58;45.25;39.95;58.36;;
72686;Laerm;61365;52.162;4.500;2024-01-30T03:39:24;45.28;40.41;56.66;;
72686;Laerm;61365;52.162;4.500;2024-01-30T03:41:50;45.33;40.69;55.44;;
72686;Laerm;61365;52.162;4.500;2024-01-30T03:44:16;45.28;40.64;52.07;;
72686;Laerm;61365;52.162;4.500;2024-01-30T03:46:43;45.23;37.82;56.56;;
72686;Laerm;61365;52.162;4.500;2024-01-30T03:49:09;45.28;39.52;57.74;;
72686;Laerm;61365;52.162;4.500;2024-01-30T03:51:35;45.23;39.51;57.34;;
72686;Laerm;61365;52.162;4.500;2024-01-30T03:54:02;45.27;39.31;55.81;;
72686;Laerm;61365;52.162;4.500;2024-01-30T03:56:28;45.33;38.83;55.10;;
72686;Laerm;61365;52.162;4.500;2024-01-30T03:58:54;45.44;38.86;55.73;;
72686;Laerm;61365;52.162;4.500;2024-01-30T04:01:21;45.31;39.21;55.18;;
72686;Laerm;61365;52.162;4.500;2024-01-30T04:03:47;45.37;35.46;58.41;;
72686;Laerm;61365;52.162;4.500;2024-01-30T04:06:13;45.31;39.67;55.85;;
72686;Laerm;61365;52.162;4.500;2024-01-30T04:08:39;45.30;40.65;55.89;;
72686;Laerm;61365;52.162;4.500;2024-01-30T04:11:06;45.28;40.17;55.38;;
72686;Laerm;61365;52.162;4.500;2024-01-30T04:13:33;45.32;38.20;55.85;;
72686;Laerm;61365;52.162;4.500;2024-01-30T04:15:59;45.39;40.18;57.29;;
72686;Laerm;61365;52.162;4.500;2024-01-30T04:18:27;45.53;39.47;59.13;;
72686;Laerm;61365;52.162;4.500;2024-01-30T04:20:54;45.45;39.20;57.06;;
72686;Laerm;61365;52.162;4.500;2024-01-30T04:23:20;45.54;38.74;57.87;;
72686;Laerm;61365;52.162;4.500;2024-01-30T04:25:46;45.53;39.80;58.15;;
72686;Laerm;61365;52.162;4.500;2024-01-30T04:28:12;45.49;40.45;57.86;;
72686;Laerm;61365;52.162;4.500;2024-01-30T04:30:39;45.51;39.78;54.77;;
72686;Laerm;61365;52.162;4.500;2024-01-30T04:33:05;45.47;40.27;56.32;;
72686;Laerm;61365;52.162;4.500;2024-01-30T04:35:32;45.38;38.38;55.56;;
72686;Laerm;61365;52.162;4.500;2024-01-30T04:37:58;45.34;39.91;57.30;;
72686;Laerm;61365;52.162;4.500;2024-01-30T04:40:24;45.38;37.99;55.34;;
72686;Laerm;61365;52.162;4.500;2024-01-30T04:42:50;45.36;39.96;54.93;;
72686;Laerm;61365;52.162;4.500;2024-01-30T04:45:16;45.39;39.93;51.75;;
72686;Laerm;61365;52.162;4.500;2024-01-30T04:47:43;45.44;40.02;57.53;;
72686;Laerm;61365;52.162;4.500;2024-01-30T04:50:09;45.43;39.15;58.00;;
72686;Laerm;61365;52.162;4.500;2024-01-30T04:52:35;45.43;40.05;56.46;;
72686;Laerm;61365;52.162;4.500;2024-01-30T04:55:02;45.39;40.18;54.69;;
72686;Laerm;61365;52.162;4.500;2024-01-30T04:57:28;45.38;38.05;57.65;;
72686;Laerm;61365;52.162;4.500;2024-01-30T04:59:54;45.38;38.46;56.04;;
72686;Laerm;61365;52.162;4.500;2024-01-30T05:02:20;45.37;40.36;51.29;;
72686;Laerm;61365;52.162;4.500;2024-01-30T05:04:46;45.45;39.82;56.48;;
72686;Laerm;61365;52.162;4.500;2024-01-30T05:07:12;45.52;39.27;58.72;;
72686;Laerm;61365;52.162;4.500;2024-01-30T05:09:38;45.55;39.67;57.80;;
72686;Laerm;61365;52.162;4.500;2024-01-30T05:12:04;45.57;37.84;57.00;;
72686;Laerm;61365;52.162;4.500;2024-01-30T05:14:30;45.59;40.34;57.27;;
72686;Laerm;61365;52.162;4.500;2024-01-30T05:16:57;45.39;39.71;52.89;;
72686;Laerm;61365;52.162;4.500;2024-01-30T05:19:23;45.49;39.41;56.05;;
72686;Laerm;61365;52.162;4.500;2024-01-30T05:21:49;45.59;39.05;55.85;;
72686;Laerm;61365;52.162;4.500;2024-01-30T05:24:16;45.46;40.33;58.35;;
72686;Laerm;61365;52.162;4.500;2024-01-30T05:26:42;45.49;40.52;52.28;;
72686;Laerm;61365;52.162;4.500;2024-01-30T05:29:08;45.41;40.16;55.45;;
72686;Laerm;61365;52.162;4.500;2024-01-30T05:31:34;45.45;38.73;57.31;;
72686;Laerm;61365;52.162;4.500;2024-01-30T05:34:00;45.38;40.05;56.85;;
72686;Laerm;61365;52.162;4.500;2024-01-30T05:36:27;45.40;38.64;57.64;;
72686;Laerm;61365;52.162;4.500;2024-01-30T05:38:53;45.35;39.95;57.49;;
72686;Laerm;61365;52.162;4.500;2024-01-30T05:41:19;45.37;39.38;58.44;;
72686;Laerm;61365;52.162;4.500;2024-01-30T05:43:46;45.36;38.76;53.57;;
72686;Laerm;61365;52.162;4.500;2024-01-30T05:46:13;45.40;37.72;56.90;;
72686;Laerm;61365;52.162;4.500;2024-01-30T05:48:39;45.45;39.00;57.03;;
72686;Laerm;61365;52.162;4.500;2024-01-30T05:51:07;45.52;40.50;56.84;;
72686;Laerm;61365;52.162;4.500;2024-01-30T05:53:33;45.49;37.63;56.82;;
72686;Laerm;61365;52.162;4.500;2024-01-30T05:56:01;45.63;38.84;58.14;;
72686;Laerm;61365;52.162;4.500;2024-01-30T05:58:28;45.57;39.83;57.41;;
72686;Laerm;61365;52.162;4.500;2024-01-30T06:00:54;45.58;40.25;56.50;;
72686;Laerm;61365;52.162;4.500;2024-01-30T06:03:20;45.48;39.97;51.79;;
72686;Laerm;61365;52.162;4.500;2024-01-30T06:05:46;45.43;37.26;57.27;;
72686;Laerm;61365;52.162;4.500;2024-01-30T06:08:13;45.51;39.92;55.26;;
72686;Laerm;61365;52.162;4.500;2024-01-30T06:10:39;45.45;39.35;51.62;;
72686;Laerm;61365;52.162;4.500;2024-01-30T06:13:06;45.37;40.16;53.17;;
72686;Laerm;61365;52.162;4.500;2024-01-30T06:15:34;45.46;37.79;56.82;;
72686;Laerm;61365;52.162;4.500;2024-01-30T06:18:01;45.48;38.26;57.98;;
72686;Laerm;61365;52.162;4.500;2024-01-30T06:20:27;45.46;39.13;56.69;;
72686;Laerm;61365;52.162;4.500;2024-01-30T06:22:53;45.48;35.01;57.88;;
72686;Laerm;61365;52.162;4.500;2024-01-30T06:25:19;45.52;38.81;57.67;;
72686;Laerm;61365;52.162;4.500;2024-01-30T06:27:45;45.58;39.51;58.25;;
72686;Laerm;61365;52.162;4.500;2024-01-30T06:30:12;45.55;39.65;55.59;;
72686;Laerm;61365;52.162;4.500;2024-01-30T06:32:38;45.53;40.02;56.02;;
72686;Laerm;61365;52.162;4.500;2024-01-30T06:35:05;45.58;39.73;54.76;;
72686;Laerm;61365;52.162;4.500;2024-01-30T06:37:31;45.63;40.16;56.70;;
72686;Laerm;61365;52.162;4.500;2024-01-30T06:39:57;45.62;38.93;55.38;;
72686;Laerm;61365;52.162;4.500;2024-01-30T06:42:24;45.59;39.01;56.28;;
72686;Laerm;61365;52.162;4.500;2024-01-30T06:44:50;45.57;38.71;57.93;;
72686;Laerm;61365;52.162;4.500;2024-01-30T06:47:16;45.57;37.76;57.24;;
72686;Laerm;61365;52.162;4.500;2024-01-30T06:49:42;45.47;39.44;54.57;;
72686;Laerm;61365;52.162;4.500;2024-01-30T06:52:09;45.55;38.78;59.20;;
72686;Laerm;61365;52.162;4.500;2024-01-30T06:54:35;45.52;37.89;57.16;;
72686;Laerm;61365;52.162;4.500;2024-01-30T06:57:02;45.50;38.85;58.22;;
72686;Laerm;61365;52.162;4.500;2024-01-30T06:59:29;45.55;39.22;57.35;;
72686;Laerm;61365;52.162;4.500;2024-01-30T07:01:55;45.59;38.15;57.86;;
72686;Laerm;61365;52.162;4.500;2024-01-30T07:04:21;45.60;39.95;57.49;;
72686;Laerm;61365;52.162;4.500;2024-01-30T07:06:47;45.56;38.71;57.12;;
72686;Laerm;61365;52.162;4.500;2024-01-30T07:09:13;45.61;36.25;57.74;;
72686;Laerm;61365;52.162;4.500;2024-01-30T07:11:39;45.61;40.64;56.37;;
72686;Laerm;61365;52.162;4.500;2024-01-30T07:14:05;45.51;40.17;55.95;;
72686;Laerm;61365;52.162;4.500;2024-01-30T07:16:32;45.49;36.90;55.16;;
72686;Laerm;61365;52.162;4.500;2024-01-30T07:18:59;45.48;40.06;58.13;;
72686;Laerm;61365;52.162;4.500;2024-01-30T07:21:25;45.57;39.31;58.09;;
72686;Laerm;61365;52.162;4.500;2024-01-30T07:23:54;45.59;39.96;55.83;;
72686;Laerm;61365;52.162;4.500;2024-01-30T07:26:21;45.50;38.41;56.98;;
72686;Laerm;61365;52.162;4.500;2024-01-30T07:28:47;45.60;40.25;56.40;;
72686;Laerm;61365;52.162;4.500;2024-01-30T07:31:14;45.53;40.37;56.51;;
72686;Laerm;61365;52.162;4.500;2024-01-30T07:33:40;45.55;38.72;54.63;;
72686;Laerm;61365;52.162;4.500;2024-01-30T07:36:06;45.57;39.62;57.35;;
72686;Laerm;61365;52.162;4.500;2024-01-30T07:38:32;45.52;39.80;58.55;;
72686;Laerm;61365;52.162;4.500;2024-01-30T07:40:58;45.60;40.44;56.46;;
72686;Laerm;61365;52.162;4.500;2024-01-30T07:43:24;45.63;39.50;57.46;;
72686;Laerm;61365;52.162;4.500;2024-01-30T07:45:50;45.47;38.22;55.39;;
72686;Laerm;61365;52.162;4.500;2024-01-30T07:48:17;45.45;38.49;55.13;;
72686;Laerm;61365;52.162;4.500;2024-01-30T07:50:43;45.42;37.65;57.29;;
72686;Laerm;61365;52.162;4.500;2024-01-30T07:53:09;45.31;40.13;51.44;;
72686;Laerm;61365;52.162;4.500;2024-01-30T07:55:35;45.44;39.81;57.22;;
72686;Laerm;61365;52.162;4.500;2024-01-30T07:58:01;45.43;40.48;56.57;;
72686;Laerm;61365;52.162;4.500;2024-01-30T08:00:27;45.36;39.76;56.98;;
72686;Laerm;61365;52.162;4.500;2024-01-30T08:02:55;45.41;38.20;58.02;;
72686;Laerm;61365;52.162;4.500;2024-01-30T08:05:22;45.34;40.03;53.86;;
72686;Laerm;61365;52.162;4.500;2024-01-30T08:07:49;45.29;38.29;57.36;;
72686;Laerm;61365;52.162;4.500;2024-01-30T08:10:15;45.26;38.21;57.44;;
72686;Laerm;61365;52.162;4.500;2024-01-30T08:12:41;45.30;40.05;56.75;;
72686;Laerm;61365;52.162;4.500;2024-01-30T08:15:08;45.26;39.69;51.58;;
72686;Laerm;61365;52.162;4.500;2024-01-30T08:17:34;45.33;37.04;56.99;;
72686;Laerm;61365;52.162;4.500;2024-01-30T08:20:00;45.30;39.76;55.70;;
72686;Laerm;61365;52.162;4.500;2024-01-30T08:22:26;45.38;40.08;57.45;;
72686;Laerm;61365;52.162;4.500;2024-01-30T08:24:52;45.37;40.08;56.13;;
72686;Laerm;61365;52.162;4.500;2024-01-30T08:27:18;45.30;38.11;57.19;;
72686;Laerm;61365;52.162;4.500;2024-01-30T08:29:44;45.33;39.94;56.91;;
72686;Laerm;61365;52.162;4.500;2024-01-30T08:32:11;45.31;40.10;56.56;;
72686;Laerm;61365;52.162;4.500;2024-01-30T08:34:37;45.34;39.39;56.91;;
72686;Laerm;61365;52.162;4.500;2024-01-30T08:37:03;45.34;39.85;53.39;;
72686;Laerm;61365;52.162;4.500;2024-01-30T08:39:29;45.24;39.54;57.20;;
72686;Laerm;61365;52.162;4.500;2024-01-30T08:41:56;45.21;39.39;51.29;;
72686;Laerm;61365;52.162;4.500;2024-01-30T08:44:22;45.20;38.85;57.01;;
72686;Laerm;61365;52.162;4.500;2024-01-30T08:46:48;45.21;39.67;53.14;;
72686;Laerm;61365;52.162;4.500;2024-01-30T08:49:19;45.23;39.67;57.19;;
72686;Laerm;61365;52.162;4.500;2024-01-30T08:51:46;45.26;35.72;57.52;;
72686;Laerm;61365;52.162;4.500;2024-01-30T08:54:15;45.18;39.47;56.43;;
72686;Laerm;61365;52.162;4.500;2024-01-30T08:56:41;45.29;40.23;55.63;;
72686;Laerm;61365;52.162;4.500;2024-01-30T08:59:07;45.24;40.86;56.43;;
72686;Laerm;61365;52.162;4.500;2024-01-30T09:01:33;45.21;38.65;56.65;;
72686;Laerm;61365;52.162;4.500;2024-01-30T09:04:00;45.19;40.39;56.69;;
72686;Laerm;61365;52.162;4.500;2024-01-30T09:06:26;45.29;39.27;57.84;;
72686;Laerm;61365;52.162;4.500;2024-01-30T09:08:53;45.21;39.35;57.25;;
72686;Laerm;61365;52.162;4.500;2024-01-30T09:11:19;45.11;39.39;57.70;;
72686;Laerm;61365;52.162;4.500;2024-01-30T09:13:46;44.98;38.79;57.15;;
72686;Laerm;61365;52.162;4.500;2024-01-30T09:16:12;45.11;39.51;57.66;;
72686;Laerm;61365;52.162;4.500;2024-01-30T09:18:38;44.92;35.87;57.34;;
72686;Laerm;61365;52.162;4.500;2024-01-30T09:21:05;44.85;39.88;56.39;;
72686;Laerm;61365;52.162;4.500;2024-01-30T09:23:31;44.97;39.41;56.76;;
72686;Laerm;61365;52.162;4.500;2024-01-30T09:25:57;44.89;39.25;57.97;;
72686;Laerm;61365;52.162;4.500;2024-01-30T09:28:23;44.81;39.55;57.88;;
72686;Laerm;61365;52.162;4.500;2024-01-30T09:30:49;44.75;38.36;57.12;;
72686;Laerm;61365;52.162;4.500;2024-01-30T09:33:15;44.66;39.26;56.40;;
72686;Laerm;61365;52.162;4.500;2024-01-30T09:35:42;44.60;39.56;50.05;;
72686;Laerm;61365;52.162;4.500;2024-01-30T09:38:08;44.74;38.55;57.38;;
72686;Laerm;61365;52.162;4.500;2024-01-30T09:40:34;44.57;39.95;56.23;;
72686;Laerm;61365;52.162;4.500;2024-01-30T09:43:00;44.52;37.73;53.86;;
72686;Laerm;61365;52.162;4.500;2024-01-30T09:45:26;44.63;38.95;57.77;;
72686;Laerm;61365;52.162;4.500;2024-01-30T09:47:53;44.45;39.42;56.08;;
72686;Laerm;61365;52.162;4.500;2024-01-30T09:50:19;44.44;39.79;57.37;;
72686;Laerm;61365;52.162;4.500;2024-01-30T09:52:46;44.47;35.08;57.92;;
72686;Laerm;61365;52.162;4.500;2024-01-30T09:55:13;44.39;38.29;57.26;;
72686;Laerm;61365;52.162;4.500;2024-01-30T09:57:39;44.41;37.25;57.91;;
72686;Laerm;61365;52.162;4.500;2024-01-30T10:00:07;44.34;39.50;54.49;;
72686;Laerm;61365;52.162;4.500;2024-01-30T10:02:35;44.36;36.95;57.39;;
72686;Laerm;61365;52.162;4.500;2024-01-30T10:05:01;44.41;39.69;57.62;;
72686;Laerm;61365;52.162;4.500;2024-01-30T10:07:28;44.46;37.42;57.75;;
72686;Laerm;61365;52.162;4.500;2024-01-30T10:09:54;44.42;38.00;56.45;;
72686;Laerm;61365;52.162;4.500;2024-01-30T10:12:23;44.40;39.94;55.35;;
72686;Laerm;61365;52.162;4.500;2024-01-30T10:14:49;44.53;38.37;57.33;;
72686;Laerm;61365;52.162;4.500;2024-01-30T10:17:15;44.52;35.08;58.75;;
72686;Laerm;61365;52.162;4.500;2024-01-30T10:19:41;44.57;39.50;57.99;;
72686;Laerm;61365;52.162;4.500;2024-01-30T10:22:09;44.42;39.13;57.12;;
72686;Laerm;61365;52.162;4.500;2024-01-30T10:24:35;44.36;38.73;58.81;;
72686;Laerm;61365;52.162;4.500;2024-01-30T10:27:02;44.34;39.44;57.07;;
72686;Laerm;61365;52.162;4.500;2024-01-30T10:29:28;44.43;38.80;55.98;;
72686;Laerm;61365;52.162;4.500;2024-01-30T10:34:24;44.51;38.97;57.76;;
72686;Laerm;61365;52.162;4.500;2024-01-30T10:37:14;44.49;39.39;56.87;;
72686;Laerm;61365;52.162;4.500;2024-01-30T10:39:44;44.48;39.43;57.56;;
72686;Laerm;61365;52.162;4.500;2024-01-30T10:42:16;44.42;38.74;56.17;;
72686;Laerm;61365;52.162;4.500;2024-01-30T10:45:08;44.49;37.12;57.93;;
72686;Laerm;61365;52.162;4.500;2024-01-30T10:47:36;44.49;37.52;58.27;;
72686;Laerm;61365;52.162;4.500;2024-01-30T10:50:03;44.39;39.73;56.78;;
72686;Laerm;61365;52.162;4.500;2024-01-30T10:52:29;44.41;37.38;55.54;;
72686;Laerm;61365;52.162;4.500;2024-01-30T10:54:58;44.36;37.60;58.37;;
72686;Laerm;61365;52.162;4.500;2024-01-30T10:57:26;44.33;38.42;57.49;;
72686;Laerm;61365;52.162;4.500;2024-01-30T10:59:57;44.27;38.64;57.26;;
72686;Laerm;61365;52.162;4.500;2024-01-30T11:02:25;44.33;37.36;57.91;;
72686;Laerm;61365;52.162;4.500;2024-01-30T11:04:59;44.24;38.58;57.22;;
72686;Laerm;61365;52.162;4.500;2024-01-30T11:07:27;44.35;37.97;56.62;;
72686;Laerm;61365;52.162;4.500;2024-01-30T11:10:00;44.35;36.20;57.60;;
72686;Laerm;61365;52.162;4.500;2024-01-30T11:12:31;44.25;36.59;56.03;;
72686;Laerm;61365;52.162;4.500;2024-01-30T11:15:09;44.25;40.00;49.97;;
72686;Laerm;61365;52.162;4.500;2024-01-30T11:20:26;44.28;39.99;57.57;;
72686;Laerm;61365;52.162;4.500;2024-01-30T11:22:54;44.27;38.50;58.34;;
72686;Laerm;61365;52.162;4.500;2024-01-30T11:25:23;44.05;39.62;54.34;;
72686;Laerm;61365;52.162;4.500;2024-01-30T11:27:53;44.22;35.77;56.75;;
72686;Laerm;61365;52.162;4.500;2024-01-30T11:30:32;44.21;38.42;58.27;;
72686;Laerm;61365;52.162;4.500;2024-01-30T11:35:25;44.14;37.86;58.31;;
72686;Laerm;61365;52.162;4.500;2024-01-30T11:37:51;44.18;37.90;57.88;;
72686;Laerm;61365;52.162;4.500;2024-01-30T11:40:17;44.16;38.85;57.71;;
72686;Laerm;61365;52.162;4.500;2024-01-30T11:42:45;44.24;37.53;56.44;;
72686;Laerm;61365;52.162;4.500;2024-01-30T11:45:13;44.20;37.78;55.74;;
72686;Laerm;61365;52.162;4.500;2024-01-30T11:47:39;44.25;39.73;56.90;;
72686;Laerm;61365;52.162;4.500;2024-01-30T11:50:05;44.15;39.73;56.99;;
72686;Laerm;61365;52.162;4.500;2024-01-30T11:52:35;44.16;39.35;58.28;;
72686;Laerm;61365;52.162;4.500;2024-01-30T11:55:05;44.10;38.20;57.86;;
72686;Laerm;61365;52.162;4.500;2024-01-30T11:57:31;44.20;35.30;58.36;;
72686;Laerm;61365;52.162;4.500;2024-01-30T11:59:58;44.14;40.22;54.52;;
72686;Laerm;61365;52.162;4.500;2024-01-30T12:02:24;44.33;35.70;58.50;;
72686;Laerm;61365;52.162;4.500;2024-01-30T12:04:50;44.29;39.80;57.57;;
72686;Laerm;61365;52.162;4.500;2024-01-30T12:07:16;44.34;39.35;58.28;;
72686;Laerm;61365;52.162;4.500;2024-01-30T12:09:52;44.37;40.17;58.44;;
72686;Laerm;61365;52.162;4.500;2024-01-30T12:12:18;44.43;36.51;58.03;;
72686;Laerm;61365;52.162;4.500;2024-01-30T12:14:44;44.42;36.60;58.70;;
72686;Laerm;61365;52.162;4.500;2024-01-30T12:17:11;44.36;37.44;56.08;;
72686;Laerm;61365;52.162;4.500;2024-01-30T12:19:38;44.40;37.31;58.76;;
72686;Laerm;61365;52.162;4.500;2024-01-30T12:22:04;44.33;37.73;55.44;;
72686;Laerm;61365;52.162;4.500;2024-01-30T12:24:30;44.35;39.88;58.34;;
72686;Laerm;61365;52.162;4.500;2024-01-30T12:26:57;44.35;39.65;56.28;;
72686;Laerm;61365;52.162;4.500;2024-01-30T12:29:25;44.32;37.82;58.86;;
72686;Laerm;61365;52.162;4.500;2024-01-30T12:31:54;44.20;37.77;57.61;;
72686;Laerm;61365;52.162;4.500;2024-01-30T12:34:21;44.30;37.21;58.62;;
72686;Laerm;61365;52.162;4.500;2024-01-30T12:36:47;44.32;38.40;57.00;;
72686;Laerm;61365;52.162;4.500;2024-01-30T12:39:15;44.44;39.93;57.88;;
72686;Laerm;61365;52.162;4.500;2024-01-30T12:41:41;44.44;38.80;56.10;;
72686;Laerm;61365;52.162;4.500;2024-01-30T12:44:07;44.35;39.92;56.60;;
72686;Laerm;61365;52.162;4.500;2024-01-30T12:46:34;44.49;39.01;58.54;;
72686;Laerm;61365;52.162;4.500;2024-01-30T12:49:01;44.48;38.77;57.68;;
72686;Laerm;61365;52.162;4.500;2024-01-30T12:51:27;44.48;36.85;57.51;;
72686;Laerm;61365;52.162;4.500;2024-01-30T12:53:53;44.38;39.59;52.53;;
72686;Laerm;61365;52.162;4.500;2024-01-30T12:56:19;44.51;37.87;57.59;;
72686;Laerm;61365;52.162;4.500;2024-01-30T12:58:45;44.45;38.78;57.58;;
72686;Laerm;61365;52.162;4.500;2024-01-30T13:01:12;44.51;39.52;51.37;;
72686;Laerm;61365;52.162;4.500;2024-01-30T13:03:38;44.49;40.22;55.95;;
72686;Laerm;61365;52.162;4.500;2024-01-30T13:06:04;44.68;39.74;57.61;;
72686;Laerm;61365;52.162;4.500;2024-01-30T13:08:30;44.62;40.23;56.06;;
72686;Laerm;61365;52.162;4.500;2024-01-30T13:10:56;44.65;36.86;57.83;;
72686;Laerm;61365;52.162;4.500;2024-01-30T13:13:23;44.72;37.85;56.90;;
72686;Laerm;61365;52.162;4.500;2024-01-30T13:15:49;44.71;38.64;58.80;;
72686;Laerm;61365;52.162;4.500;2024-01-30T13:18:15;44.63;40.83;56.55;;
72686;Laerm;61365;52.162;4.500;2024-01-30T13:20:41;44.77;38.15;58.40;;
72686;Laerm;61365;52.162;4.500;2024-01-30T13:23:08;44.68;39.77;57.08;;
72686;Laerm;61365;52.162;4.500;2024-01-30T13:25:34;44.74;40.02;56.32;;
72686;Laerm;61365;52.162;4.500;2024-01-30T13:28:00;44.87;37.36;58.05;;
72686;Laerm;61365;52.162;4.500;2024-01-30T13:30:27;44.89;37.28;58.28;;
72686;Laerm;61365;52.162;4.500;2024-01-30T13:32:53;44.88;37.78;58.02;;
72686;Laerm;61365;52.162;4.500;2024-01-30T13:35:20;44.87;38.90;58.57;;
72686;Laerm;61365;52.162;4.500;2024-01-30T13:37:46;44.85;38.32;58.06;;
72686;Laerm;61365;52.162;4.500;2024-01-30T13:40:14;44.82;40.48;58.13;;
72686;Laerm;61365;52.162;4.500;2024-01-30T13:42:42;44.98;39.46;58.35;;
72686;Laerm;61365;52.162;4.500;2024-01-30T13:45:08;44.99;39.63;57.77;;
72686;Laerm;61365;52.162;4.500;2024-01-30T13:47:35;44.99;38.12;56.80;;
72686;Laerm;61365;52.162;4.500;2024-01-30T13:50:02;44.90;37.13;56.03;;